Time;durP1;ratioP1;P1;durP2;ratioP2;P2;SDS_P1;SDS_P2;PMS_P1;PMS_P2;Temp;Humidity;BMP_temperature;BMP_pressure;BME280_temperature;BME280_humidity;BME280_pressure;Samples;Min_cycle;Max_cycle;Signal;HPM_P1;HPM_P2
2022/04/29 00:00:05;;;;;;;15.75;8.68;;;;;;;;;;5029020;28;20031;-70
2022/04/29 00:02:31;;;;;;;20.15;9.63;;;;;;;;;;5045313;28;20067;-69
2022/04/29 00:04:57;;;;;;;18.13;9.35;;;;;;;;;;5038839;28;20522;-71
2022/04/29 00:07:22;;;;;;;20.27;9.52;;;;;;;;;;5034537;28;20541;-70
2022/04/29 00:09:47;;;;;;;19.40;9.15;;;;;;;;;;5041270;28;20080;-71
2022/04/29 00:12:13;;;;;;;22.00;9.63;;;;;;;;;;5034107;28;20030;-69
2022/04/29 00:14:38;;;;;;;21.73;9.30;;;;;;;;;;5033234;28;20025;-71
2022/04/29 00:17:05;;;;;;;20.30;9.55;;;;;;;;;;5036197;28;20037;-71
2022/04/29 00:19:30;;;;;;;20.70;9.45;;;;;;;;;;5046412;28;20055;-70
2022/04/29 00:21:56;;;;;;;18.67;9.85;;;;;;;;;;5038254;28;20509;-71
2022/04/29 00:24:21;;;;;;;19.70;9.70;;;;;;;;;;5028602;28;20022;-71
2022/04/29 00:26:46;;;;;;;21.98;9.38;;;;;;;;;;5031602;28;20014;-71
2022/04/29 00:29:12;;;;;;;18.38;9.75;;;;;;;;;;5032655;28;20044;-71
2022/04/29 00:31:38;;;;;;;21.27;10.07;;;;;;;;;;5041991;28;20041;-70
2022/04/29 00:34:04;;;;;;;25.58;10.15;;;;;;;;;;5032139;28;20032;-70
2022/04/29 00:36:29;;;;;;;22.23;10.75;;;;;;;;;;5042381;28;20045;-70
2022/04/29 00:38:54;;;;;;;19.17;10.13;;;;;;;;;;5047852;28;20016;-70
2022/04/29 00:41:22;;;;;;;18.73;9.77;;;;;;;;;;5040240;28;20112;-70
2022/04/29 00:43:59;;;;;;;21.27;10.50;;;;;;;;;;5032121;28;20033;-70
2022/04/29 00:46:24;;;;;;;19.15;10.05;;;;;;;;;;5027009;28;20636;-70
2022/04/29 00:48:49;;;;;;;20.60;9.90;;;;;;;;;;5027782;28;20041;-70
2022/04/29 00:51:15;;;;;;;17.95;9.25;;;;;;;;;;5027621;28;20035;-69
2022/04/29 00:53:40;;;;;;;24.13;11.00;;;;;;;;;;5037638;28;20025;-70
2022/04/29 00:56:06;;;;;;;25.30;11.05;;;;;;;;;;5037218;28;20030;-70
2022/04/29 00:58:43;;;;;;;18.13;9.27;;;;;;;;;;5039350;28;20039;-70
2022/04/29 01:01:08;;;;;;;19.60;9.23;;;;;;;;;;5029187;28;20112;-70
2022/04/29 01:03:37;;;;;;;19.45;10.07;;;;;;;;;;5037303;28;20178;-70
2022/04/29 01:06:02;;;;;;;18.35;8.85;;;;;;;;;;5039814;28;20041;-70
2022/04/29 01:08:28;;;;;;;19.50;9.10;;;;;;;;;;5042180;28;20411;-70
2022/04/29 01:10:53;;;;;;;18.13;9.77;;;;;;;;;;5030888;28;20108;-70
2022/04/29 01:13:19;;;;;;;19.63;9.63;;;;;;;;;;5044524;28;20037;-70
2022/04/29 01:15:45;;;;;;;17.70;9.63;;;;;;;;;;5028539;28;20107;-70
2022/04/29 01:18:13;;;;;;;20.60;9.85;;;;;;;;;;5032905;28;20464;-69
2022/04/29 01:20:39;;;;;;;20.95;10.32;;;;;;;;;;5040346;28;20021;-70
2022/04/29 01:23:06;;;;;;;19.05;10.70;;;;;;;;;;5043170;28;20170;-70
2022/04/29 01:25:32;;;;;;;19.38;10.18;;;;;;;;;;5040397;28;20033;-70
2022/04/29 01:27:58;;;;;;;17.58;9.77;;;;;;;;;;5050390;28;20041;-70
2022/04/29 01:30:24;;;;;;;23.77;10.43;;;;;;;;;;5052344;28;20056;-70
2022/04/29 01:32:49;;;;;;;22.35;10.82;;;;;;;;;;5041045;28;20029;-70
2022/04/29 01:35:15;;;;;;;19.30;10.25;;;;;;;;;;5038761;28;20032;-69
2022/04/29 01:37:42;;;;;;;18.40;9.90;;;;;;;;;;5041983;28;20037;-70
2022/04/29 01:40:09;;;;;;;23.38;11.55;;;;;;;;;;5039245;28;20040;-70
2022/04/29 01:42:36;;;;;;;21.50;10.88;;;;;;;;;;5052909;28;20056;-70
2022/04/29 01:45:02;;;;;;;22.10;10.45;;;;;;;;;;5048950;28;20080;-70
2022/04/29 01:47:28;;;;;;;25.08;10.18;;;;;;;;;;5033610;28;20042;-70
2022/04/29 01:49:53;;;;;;;26.80;11.95;;;;;;;;;;5033715;28;20141;-70
2022/04/29 01:52:18;;;;;;;23.17;10.98;;;;;;;;;;5040522;28;20047;-70
2022/04/29 01:54:43;;;;;;;24.50;10.95;;;;;;;;;;5051390;28;20024;-70
2022/04/29 01:57:09;;;;;;;23.98;10.43;;;;;;;;;;5043268;28;20763;-70
2022/04/29 01:59:36;;;;;;;24.35;11.50;;;;;;;;;;5034743;28;20531;-70
2022/04/29 02:02:03;;;;;;;24.25;11.50;;;;;;;;;;5037209;28;20053;-70
2022/04/29 02:04:29;;;;;;;22.77;10.57;;;;;;;;;;5045450;28;20044;-70
2022/04/29 02:06:55;;;;;;;26.05;11.68;;;;;;;;;;5038965;28;20041;-70
2022/04/29 02:09:20;;;;;;;27.45;12.45;;;;;;;;;;5046185;28;20021;-70
2022/04/29 02:12:04;;;;;;;23.38;11.70;;;;;;;;;;5051517;28;20116;-70
2022/04/29 02:14:30;;;;;;;19.92;10.27;;;;;;;;;;5038541;28;20029;-70
2022/04/29 02:16:57;;;;;;;23.25;11.45;;;;;;;;;;5035459;28;20075;-70
2022/04/29 02:19:23;;;;;;;25.50;11.55;;;;;;;;;;5044882;28;20028;-70
2022/04/29 02:21:49;;;;;;;21.70;11.32;;;;;;;;;;5042364;28;20056;-70
2022/04/29 02:24:14;;;;;;;24.75;11.63;;;;;;;;;;5033290;28;20021;-69
2022/04/29 02:26:40;;;;;;;28.20;12.07;;;;;;;;;;5033755;28;20056;-70
2022/04/29 02:29:07;;;;;;;21.77;11.95;;;;;;;;;;5039741;28;20515;-68
2022/04/29 02:31:32;;;;;;;30.70;12.30;;;;;;;;;;5035161;28;20086;-70
2022/04/29 02:33:58;;;;;;;28.38;12.57;;;;;;;;;;5044074;28;20037;-70
2022/04/29 02:36:23;;;;;;;25.52;12.55;;;;;;;;;;5030454;28;20029;-69
2022/04/29 02:38:48;;;;;;;25.55;11.85;;;;;;;;;;5031318;28;20017;-70
2022/04/29 02:41:14;;;;;;;25.27;11.88;;;;;;;;;;5041718;28;20045;-70
2022/04/29 02:43:40;;;;;;;23.27;12.27;;;;;;;;;;5044731;28;20064;-70
2022/04/29 02:46:05;;;;;;;27.95;11.98;;;;;;;;;;5049537;28;20065;-70
2022/04/29 02:48:31;;;;;;;23.42;11.98;;;;;;;;;;5049555;28;20029;-68
2022/04/29 02:50:56;;;;;;;25.80;13.05;;;;;;;;;;5034135;28;20038;-70
2022/04/29 02:53:22;;;;;;;26.95;12.23;;;;;;;;;;5036879;28;20437;-70
2022/04/29 02:55:47;;;;;;;24.10;12.55;;;;;;;;;;5043814;28;20041;-70
2022/04/29 02:58:12;;;;;;;27.23;12.32;;;;;;;;;;5039476;28;20040;-70
2022/04/29 03:00:39;;;;;;;27.52;12.48;;;;;;;;;;5029683;28;20041;-70
2022/04/29 03:03:05;;;;;;;27.83;11.73;;;;;;;;;;5038648;28;20044;-70
2022/04/29 03:05:31;;;;;;;24.15;12.23;;;;;;;;;;5042132;28;20053;-70
2022/04/29 03:07:56;;;;;;;25.42;11.95;;;;;;;;;;5047701;28;20040;-69
2022/04/29 03:10:22;;;;;;;25.10;12.32;;;;;;;;;;5039350;28;20060;-70
2022/04/29 03:12:47;;;;;;;29.05;11.90;;;;;;;;;;5036073;28;20453;-70
2022/04/29 03:15:16;;;;;;;23.77;11.25;;;;;;;;;;5042172;28;20032;-69
2022/04/29 03:20:26;;;;;;;23.25;11.63;;;;;;;;;;5036392;28;20032;-70
2022/04/29 03:22:52;;;;;;;22.65;12.25;;;;;;;;;;5039689;28;20036;-69
2022/04/29 03:25:17;;;;;;;24.83;13.15;;;;;;;;;;5043256;28;20041;-70
2022/04/29 03:27:43;;;;;;;24.02;11.95;;;;;;;;;;5044535;28;20446;-70
2022/04/29 03:30:09;;;;;;;31.13;12.70;;;;;;;;;;5045055;28;20086;-70
2022/04/29 03:32:34;;;;;;;29.42;12.75;;;;;;;;;;5028841;28;20033;-70
2022/04/29 03:35:00;;;;;;;25.73;13.00;;;;;;;;;;5030269;28;20033;-69
2022/04/29 03:37:25;;;;;;;29.55;13.50;;;;;;;;;;5032200;28;20044;-70
2022/04/29 03:39:50;;;;;;;23.35;12.43;;;;;;;;;;5043298;28;20148;-70
2022/04/29 03:42:16;;;;;;;30.35;13.82;;;;;;;;;;5029807;28;20022;-69
2022/04/29 03:44:41;;;;;;;26.23;12.75;;;;;;;;;;5039485;28;20453;-70
2022/04/29 03:47:06;;;;;;;28.77;14.00;;;;;;;;;;5039307;28;20160;-70
2022/04/29 03:49:37;;;;;;;27.92;13.45;;;;;;;;;;5029253;28;20030;-70
2022/04/29 03:52:04;;;;;;;29.55;12.68;;;;;;;;;;5044955;28;20090;-70
2022/04/29 03:54:30;;;;;;;31.98;13.68;;;;;;;;;;5045246;28;20036;-70
2022/04/29 03:56:56;;;;;;;25.63;13.00;;;;;;;;;;5038234;28;20025;-70
2022/04/29 03:59:21;;;;;;;26.92;14.07;;;;;;;;;;5034602;28;20875;-70
2022/04/29 04:01:47;;;;;;;26.75;13.38;;;;;;;;;;5034800;28;20163;-70
2022/04/29 04:04:12;;;;;;;25.75;13.00;;;;;;;;;;5043012;28;20524;-70
2022/04/29 04:06:49;;;;;;;29.00;13.80;;;;;;;;;;5044156;28;20140;-70
2022/04/29 04:09:21;;;;;;;30.27;13.73;;;;;;;;;;5048485;28;20107;-69
2022/04/29 04:11:48;;;;;;;29.63;13.73;;;;;;;;;;5035599;28;20036;-69
2022/04/29 04:14:14;;;;;;;28.60;13.05;;;;;;;;;;5042190;28;20120;-70
2022/04/29 04:16:39;;;;;;;28.98;13.98;;;;;;;;;;5037946;28;20041;-70
2022/04/29 04:19:05;;;;;;;30.45;14.45;;;;;;;;;;5043617;28;20029;-70
2022/04/29 04:21:31;;;;;;;28.42;13.88;;;;;;;;;;5046716;28;20036;-70
2022/04/29 04:23:56;;;;;;;31.95;13.68;;;;;;;;;;5036109;28;20021;-69
2022/04/29 04:26:22;;;;;;;31.05;13.73;;;;;;;;;;5033593;28;20025;-70
2022/04/29 04:28:48;;;;;;;26.45;13.02;;;;;;;;;;5043724;28;20041;-68
2022/04/29 04:31:13;;;;;;;27.67;13.43;;;;;;;;;;5033200;28;20459;-69
2022/04/29 04:33:39;;;;;;;28.40;13.32;;;;;;;;;;5037287;28;20033;-70
2022/04/29 04:36:05;;;;;;;28.52;13.18;;;;;;;;;;5038294;28;20522;-69
2022/04/29 04:38:31;;;;;;;29.08;14.32;;;;;;;;;;5032942;28;20083;-69
2022/04/29 04:40:58;;;;;;;29.23;13.30;;;;;;;;;;5038485;28;20037;-70
2022/04/29 04:43:24;;;;;;;25.50;13.25;;;;;;;;;;5046340;28;20120;-70
2022/04/29 04:45:50;;;;;;;28.65;13.35;;;;;;;;;;5047275;28;20025;-70
2022/04/29 04:48:15;;;;;;;33.10;13.27;;;;;;;;;;5030183;28;20075;-73
2022/04/29 04:50:41;;;;;;;26.40;13.27;;;;;;;;;;5041714;28;20040;-69
2022/04/29 04:53:06;;;;;;;27.48;12.98;;;;;;;;;;5041327;28;20043;-69
2022/04/29 04:55:31;;;;;;;25.65;13.68;;;;;;;;;;5045257;28;20040;-68
2022/04/29 04:57:57;;;;;;;31.65;13.93;;;;;;;;;;5040249;28;20045;-69
2022/04/29 05:00:22;;;;;;;28.20;13.20;;;;;;;;;;5027939;28;20775;-70
2022/04/29 05:02:47;;;;;;;29.90;13.82;;;;;;;;;;5040497;28;20048;-70
2022/04/29 05:05:13;;;;;;;29.30;14.63;;;;;;;;;;5046802;28;20063;-70
2022/04/29 05:07:38;;;;;;;29.70;14.00;;;;;;;;;;5041989;28;20099;-70
2022/04/29 05:10:08;;;;;;;33.47;14.48;;;;;;;;;;5030030;28;20041;-70
2022/04/29 05:12:39;;;;;;;28.40;13.32;;;;;;;;;;5039366;28;20052;-70
2022/04/29 05:15:05;;;;;;;30.52;14.65;;;;;;;;;;5033366;28;20038;-70
2022/04/29 05:17:30;;;;;;;33.15;14.57;;;;;;;;;;5029453;28;20046;-70
2022/04/29 05:19:55;;;;;;;29.80;13.75;;;;;;;;;;5036708;28;20064;-70
2022/04/29 05:22:21;;;;;;;28.20;13.43;;;;;;;;;;5036104;28;20039;-69
2022/04/29 05:24:48;;;;;;;31.88;13.90;;;;;;;;;;5036195;28;20041;-70
2022/04/29 05:27:13;;;;;;;30.35;14.95;;;;;;;;;;5028299;28;20040;-70
2022/04/29 05:29:38;;;;;;;29.42;13.45;;;;;;;;;;5035474;28;20028;-69
2022/04/29 05:32:04;;;;;;;30.42;13.30;;;;;;;;;;5043479;28;20036;-70
2022/04/29 05:34:30;;;;;;;32.75;15.50;;;;;;;;;;5029299;28;20025;-70
2022/04/29 05:36:55;;;;;;;29.15;14.07;;;;;;;;;;5040809;28;20068;-70
2022/04/29 05:42:14;;;;;;;25.05;13.13;;;;;;;;;;5028468;28;20032;-70
2022/04/29 05:44:40;;;;;;;32.35;14.10;;;;;;;;;;5037181;28;20040;-70
2022/04/29 05:47:05;;;;;;;31.23;13.88;;;;;;;;;;5037178;28;20033;-69
2022/04/29 05:49:31;;;;;;;25.95;13.57;;;;;;;;;;5034981;28;20586;-70
2022/04/29 05:51:59;;;;;;;27.45;12.95;;;;;;;;;;5029138;28;20060;-69
2022/04/29 05:54:25;;;;;;;31.23;13.57;;;;;;;;;;5036230;28;20021;-70
2022/04/29 05:56:50;;;;;;;31.10;14.43;;;;;;;;;;5034364;28;20032;-70
2022/04/29 05:59:15;;;;;;;30.65;14.32;;;;;;;;;;5037644;28;20040;-69
2022/04/29 06:01:41;;;;;;;25.75;12.82;;;;;;;;;;5035288;28;20084;-70
2022/04/29 06:04:06;;;;;;;24.65;13.15;;;;;;;;;;5034018;28;20561;-69
2022/04/29 06:06:33;;;;;;;28.88;13.75;;;;;;;;;;5031882;28;20043;-70
2022/04/29 06:08:58;;;;;;;23.45;12.55;;;;;;;;;;5036955;28;20407;-70
2022/04/29 06:11:24;;;;;;;26.50;13.27;;;;;;;;;;5031078;28;20554;-70
2022/04/29 06:13:50;;;;;;;39.00;13.55;;;;;;;;;;5034229;28;20498;-70
2022/04/29 06:16:17;;;;;;;32.97;13.00;;;;;;;;;;5040919;28;20434;-69
2022/04/29 06:18:42;;;;;;;23.30;12.93;;;;;;;;;;5033218;28;20102;-70
2022/04/29 06:21:08;;;;;;;29.00;13.35;;;;;;;;;;5035857;28;20686;-70
2022/04/29 06:23:33;;;;;;;29.35;13.48;;;;;;;;;;5028729;28;20044;-68
2022/04/29 06:25:59;;;;;;;33.30;13.18;;;;;;;;;;5036063;28;20151;-69
2022/04/29 06:28:24;;;;;;;33.85;14.18;;;;;;;;;;5038035;28;20037;-70
2022/04/29 06:30:49;;;;;;;25.75;12.95;;;;;;;;;;5041673;28;20474;-70
2022/04/29 06:33:16;;;;;;;25.40;13.27;;;;;;;;;;5032320;28;20402;-69
2022/04/29 06:35:42;;;;;;;22.80;12.65;;;;;;;;;;5035210;28;20021;-69
2022/04/29 06:38:11;;;;;;;25.17;12.82;;;;;;;;;;5034568;28;20400;-70
2022/04/29 06:40:36;;;;;;;25.40;13.85;;;;;;;;;;5033383;28;20399;-70
2022/04/29 06:43:02;;;;;;;24.15;14.13;;;;;;;;;;5034652;28;20499;-68
2022/04/29 06:45:27;;;;;;;27.52;14.18;;;;;;;;;;5033272;28;20033;-70
2022/04/29 06:47:53;;;;;;;26.08;12.90;;;;;;;;;;5033380;28;20499;-70
2022/04/29 06:50:18;;;;;;;25.92;13.05;;;;;;;;;;5038885;28;20071;-70
2022/04/29 06:52:43;;;;;;;29.30;13.20;;;;;;;;;;5039570;28;20041;-70
2022/04/29 06:55:09;;;;;;;28.08;14.40;;;;;;;;;;5039754;28;20064;-70
2022/04/29 06:57:34;;;;;;;28.10;13.20;;;;;;;;;;5034532;28;20740;-70
2022/04/29 07:00:00;;;;;;;26.48;13.35;;;;;;;;;;5032672;28;20029;-71
2022/04/29 07:02:26;;;;;;;27.27;13.98;;;;;;;;;;5043429;28;20542;-69
2022/04/29 07:04:54;;;;;;;25.23;13.35;;;;;;;;;;5043287;28;20041;-70
2022/04/29 07:07:20;;;;;;;34.00;13.68;;;;;;;;;;5035660;28;20041;-69
2022/04/29 07:09:46;;;;;;;24.05;12.65;;;;;;;;;;5043665;28;20055;-70
2022/04/29 07:12:11;;;;;;;26.95;13.00;;;;;;;;;;5034787;28;20025;-69
2022/04/29 07:14:36;;;;;;;29.52;13.88;;;;;;;;;;5031926;28;20020;-70
2022/04/29 07:17:02;;;;;;;41.50;13.93;;;;;;;;;;5041907;28;20125;-70
2022/04/29 07:19:28;;;;;;;29.88;13.65;;;;;;;;;;5040798;28;20128;-70
2022/04/29 07:21:53;;;;;;;26.35;13.15;;;;;;;;;;5032790;28;20388;-70
2022/04/29 07:24:18;;;;;;;29.50;13.93;;;;;;;;;;5035375;28;20032;-71
2022/04/29 07:26:44;;;;;;;26.95;13.65;;;;;;;;;;5030930;28;20017;-70
2022/04/29 07:29:10;;;;;;;29.67;13.57;;;;;;;;;;5035076;28;20124;-70
2022/04/29 07:31:35;;;;;;;29.10;14.63;;;;;;;;;;5039765;28;20117;-70
2022/04/29 07:34:01;;;;;;;25.02;13.50;;;;;;;;;;5042746;28;20057;-70
2022/04/29 07:41:54;;;;;;;30.83;13.93;;;;;;;;;;5042261;28;20234;-70
2022/04/29 07:44:19;;;;;;;24.58;13.25;;;;;;;;;;5035509;28;20473;-71
2022/04/29 07:46:47;;;;;;;27.13;12.98;;;;;;;;;;5036026;28;20502;-70
2022/04/29 07:49:13;;;;;;;25.17;13.32;;;;;;;;;;5037240;28;20044;-71
2022/04/29 07:51:39;;;;;;;27.92;13.27;;;;;;;;;;5033014;28;20522;-71
2022/04/29 07:54:05;;;;;;;25.75;13.18;;;;;;;;;;5038016;28;20036;-70
2022/04/29 07:56:30;;;;;;;30.45;13.75;;;;;;;;;;5036521;28;20052;-70
2022/04/29 07:58:57;;;;;;;28.10;14.45;;;;;;;;;;5034193;28;20585;-70
2022/04/29 08:01:23;;;;;;;33.00;13.75;;;;;;;;;;5034366;28;20040;-70
2022/04/29 08:03:48;;;;;;;26.88;13.60;;;;;;;;;;5036812;28;20437;-70
2022/04/29 08:06:13;;;;;;;27.92;14.15;;;;;;;;;;5033618;28;20084;-70
2022/04/29 08:08:39;;;;;;;23.98;12.98;;;;;;;;;;5033801;28;20029;-71
2022/04/29 08:11:05;;;;;;;26.35;13.52;;;;;;;;;;5035648;28;20101;-70
2022/04/29 08:13:30;;;;;;;28.55;13.88;;;;;;;;;;5036789;28;20037;-70
2022/04/29 08:15:58;;;;;;;28.23;13.48;;;;;;;;;;5032222;28;20128;-70
2022/04/29 08:18:24;;;;;;;29.67;14.77;;;;;;;;;;5032786;28;20037;-70
2022/04/29 08:20:50;;;;;;;27.10;12.48;;;;;;;;;;5033833;28;20036;-70
2022/04/29 08:23:15;;;;;;;26.33;13.45;;;;;;;;;;5035939;28;20041;-70
2022/04/29 08:25:40;;;;;;;28.55;13.45;;;;;;;;;;5032616;28;20068;-70
2022/04/29 08:28:06;;;;;;;23.38;12.98;;;;;;;;;;5041960;28;20662;-70
2022/04/29 08:30:31;;;;;;;29.17;13.90;;;;;;;;;;5030764;28;20041;-70
2022/04/29 08:32:59;;;;;;;24.98;14.10;;;;;;;;;;5035618;28;20032;-70
2022/04/29 08:35:25;;;;;;;27.35;13.93;;;;;;;;;;5044594;28;20140;-71
2022/04/29 08:37:51;;;;;;;29.85;13.77;;;;;;;;;;5036569;28;20041;-70
2022/04/29 08:40:17;;;;;;;26.13;13.30;;;;;;;;;;5041371;28;20088;-70
2022/04/29 08:42:42;;;;;;;24.70;13.73;;;;;;;;;;5041224;28;20059;-70
2022/04/29 08:45:14;;;;;;;26.65;13.32;;;;;;;;;;5043464;28;20029;-70
2022/04/29 08:47:42;;;;;;;23.98;13.38;;;;;;;;;;5034655;28;20034;-70
2022/04/29 08:50:10;;;;;;;28.85;13.27;;;;;;;;;;5039771;28;20041;-74
2022/04/29 08:52:36;;;;;;;25.83;13.10;;;;;;;;;;5039912;28;20094;-72
2022/04/29 09:00:41;;;;;;;26.92;12.60;;;;;;;;;;5036868;28;20091;-72
2022/04/29 09:03:10;;;;;;;27.92;13.25;;;;;;;;;;5033620;28;20025;-72
2022/04/29 09:05:35;;;;;;;29.30;13.20;;;;;;;;;;5037761;28;20033;-73
2022/04/29 09:08:02;;;;;;;27.63;12.50;;;;;;;;;;5030724;28;20037;-72
2022/04/29 09:10:36;;;;;;;26.73;13.73;;;;;;;;;;5042030;28;20025;-72
2022/04/29 09:13:15;;;;;;;27.00;12.40;;;;;;;;;;5030902;28;20033;-73
2022/04/29 09:15:57;;;;;;;23.27;12.32;;;;;;;;;;5026375;28;20124;-72
2022/04/29 09:19:02;;;;;;;22.73;12.90;;;;;;;;;;5032912;28;20024;-73
2022/04/29 09:21:31;;;;;;;29.10;13.57;;;;;;;;;;5028803;28;20518;-72
2022/04/29 09:24:03;;;;;;;24.67;13.43;;;;;;;;;;5032842;28;20060;-72
2022/04/29 09:26:41;;;;;;;27.45;14.00;;;;;;;;;;5043225;28;20037;-73
2022/04/29 09:29:13;;;;;;;29.73;13.65;;;;;;;;;;5032796;28;20044;-72
2022/04/29 09:32:05;;;;;;;23.02;13.25;;;;;;;;;;5035910;28;20041;-71
2022/04/29 09:34:44;;;;;;;26.00;14.15;;;;;;;;;;5033823;28;20057;-73
2022/04/29 09:37:13;;;;;;;27.05;13.88;;;;;;;;;;5037872;28;20041;-73
2022/04/29 09:40:02;;;;;;;27.90;13.50;;;;;;;;;;5032513;28;20469;-73
2022/04/29 09:42:38;;;;;;;25.95;12.85;;;;;;;;;;5031015;28;20017;-73
2022/04/29 09:45:11;;;;;;;27.95;15.77;;;;;;;;;;5035303;28;20053;-72
2022/04/29 09:47:36;;;;;;;34.20;14.50;;;;;;;;;;5032613;28;20037;-73
2022/04/29 09:50:04;;;;;;;22.90;12.73;;;;;;;;;;5033547;28;20040;-73
2022/04/29 09:52:30;;;;;;;22.85;13.05;;;;;;;;;;5041992;28;20036;-73
2022/04/29 09:55:09;;;;;;;33.80;14.80;;;;;;;;;;5039679;28;20029;-74
2022/04/29 09:57:46;;;;;;;29.48;13.45;;;;;;;;;;5036865;28;20040;-73
2022/04/29 10:00:12;;;;;;;29.90;15.25;;;;;;;;;;5038026;28;20055;-71
2022/04/29 10:02:38;;;;;;;30.35;14.93;;;;;;;;;;5037105;28;20036;-73
2022/04/29 10:05:04;;;;;;;30.10;14.90;;;;;;;;;;5039454;28;20040;-73
2022/04/29 10:07:33;;;;;;;30.20;15.48;;;;;;;;;;5033448;28;20034;-73
2022/04/29 10:09:59;;;;;;;29.85;14.63;;;;;;;;;;5043435;28;20049;-73
2022/04/29 10:12:26;;;;;;;27.58;13.40;;;;;;;;;;5039743;28;20033;-73
2022/04/29 10:14:59;;;;;;;27.05;14.10;;;;;;;;;;5033495;28;20135;-73
2022/04/29 10:23:08;;;;;;;29.40;15.30;;;;;;;;;;5034253;28;20076;-73
2022/04/29 10:25:35;;;;;;;25.70;13.65;;;;;;;;;;5035756;28;20113;-73
2022/04/29 10:28:01;;;;;;;30.38;13.85;;;;;;;;;;5038548;28;20037;-73
2022/04/29 10:30:34;;;;;;;37.10;14.88;;;;;;;;;;5033289;28;20032;-70
2022/04/29 10:33:10;;;;;;;30.85;15.02;;;;;;;;;;5043521;28;20033;-73
2022/04/29 10:35:38;;;;;;;30.98;14.38;;;;;;;;;;5032289;28;20045;-73
2022/04/29 10:38:15;;;;;;;29.15;15.13;;;;;;;;;;5037589;28;20040;-73
2022/04/29 10:40:42;;;;;;;25.10;14.13;;;;;;;;;;5049150;28;20068;-74
2022/04/29 10:43:09;;;;;;;27.90;14.60;;;;;;;;;;5042845;28;20132;-70
2022/04/29 10:45:36;;;;;;;23.08;12.70;;;;;;;;;;5034897;28;20032;-74
2022/04/29 10:48:29;;;;;;;24.83;13.48;;;;;;;;;;5038850;28;20567;-73
2022/04/29 10:50:54;;;;;;;27.55;13.20;;;;;;;;;;5036073;28;20549;-74
2022/04/29 10:53:22;;;;;;;27.35;12.25;;;;;;;;;;5029926;28;20034;-73
2022/04/29 10:55:47;;;;;;;31.40;14.13;;;;;;;;;;5032365;28;20536;-73
2022/04/29 10:58:21;;;;;;;28.67;13.40;;;;;;;;;;5037401;28;20147;-73
2022/04/29 11:01:14;;;;;;;27.25;13.05;;;;;;;;;;5038885;28;20033;-74
2022/04/29 11:03:41;;;;;;;25.13;13.43;;;;;;;;;;5040025;28;20037;-74
2022/04/29 11:06:12;;;;;;;34.90;14.65;;;;;;;;;;5045542;28;20064;-74
2022/04/29 11:08:38;;;;;;;25.15;13.05;;;;;;;;;;5041726;28;20039;-74
2022/04/29 11:11:04;;;;;;;25.45;13.48;;;;;;;;;;5038596;28;20033;-74
2022/04/29 11:13:34;;;;;;;31.67;13.98;;;;;;;;;;5042580;28;20033;-73
2022/04/29 11:16:16;;;;;;;26.73;14.13;;;;;;;;;;5033576;28;20059;-74
2022/04/29 11:18:44;;;;;;;29.30;14.27;;;;;;;;;;5030122;28;20064;-74
2022/04/29 11:26:52;;;;;;;24.63;13.57;;;;;;;;;;5028882;28;20484;-73
2022/04/29 11:29:18;;;;;;;27.73;14.10;;;;;;;;;;5041096;28;20057;-74
2022/04/29 11:31:43;;;;;;;24.63;13.18;;;;;;;;;;5030222;28;20053;-74
2022/04/29 11:34:13;;;;;;;22.98;13.05;;;;;;;;;;5032542;28;20072;-74
2022/04/29 11:36:39;;;;;;;31.73;14.05;;;;;;;;;;5031696;28;20072;-73
2022/04/29 11:39:15;;;;;;;30.00;13.77;;;;;;;;;;5033329;28;20037;-74
2022/04/29 11:41:59;;;;;;;36.33;13.60;;;;;;;;;;5028162;28;20049;-74
2022/04/29 11:44:42;;;;;;;27.65;14.52;;;;;;;;;;5028435;28;20034;-74
2022/04/29 11:47:07;;;;;;;27.85;13.05;;;;;;;;;;5028787;28;20392;-73
2022/04/29 11:49:34;;;;;;;26.88;13.68;;;;;;;;;;5041590;28;20131;-74
2022/04/29 11:52:18;;;;;;;24.10;12.88;;;;;;;;;;5033759;28;20136;-73
2022/04/29 11:55:02;;;;;;;25.05;12.43;;;;;;;;;;5036591;28;20037;-73
2022/04/29 11:57:30;;;;;;;29.38;14.10;;;;;;;;;;5032949;28;20021;-73
2022/04/29 11:59:56;;;;;;;25.92;13.95;;;;;;;;;;5036241;28;20033;-74
2022/04/29 12:02:22;;;;;;;23.33;13.05;;;;;;;;;;5039579;28;20103;-74
2022/04/29 12:04:54;;;;;;;30.80;14.75;;;;;;;;;;5040825;28;20118;-74
2022/04/29 12:07:21;;;;;;;26.42;13.00;;;;;;;;;;5029201;28;20041;-74
2022/04/29 12:09:47;;;;;;;30.70;14.32;;;;;;;;;;5037579;28;20037;-74
2022/04/29 12:12:26;;;;;;;30.35;14.38;;;;;;;;;;5032856;28;20403;-72
2022/04/29 12:14:51;;;;;;;31.38;14.50;;;;;;;;;;5040609;28;20030;-73
2022/04/29 12:17:17;;;;;;;22.27;12.70;;;;;;;;;;5035264;28;20042;-74
2022/04/29 12:19:42;;;;;;;29.80;14.65;;;;;;;;;;5047122;28;20053;-73
2022/04/29 12:22:09;;;;;;;28.75;14.82;;;;;;;;;;5027557;28;20569;-74
2022/04/29 12:24:44;;;;;;;25.00;12.43;;;;;;;;;;5033892;28;20406;-74
2022/04/29 12:27:09;;;;;;;25.65;14.60;;;;;;;;;;5036316;28;20077;-74
2022/04/29 12:29:38;;;;;;;27.13;13.63;;;;;;;;;;5043056;28;20036;-74
2022/04/29 12:35:11;;;;;;;32.63;14.35;;;;;;;;;;5047908;28;20098;-74
2022/04/29 12:37:37;;;;;;;27.90;14.85;;;;;;;;;;5046439;28;20093;-74
2022/04/29 12:40:11;;;;;;;27.83;14.45;;;;;;;;;;5041270;28;20060;-74
2022/04/29 12:42:36;;;;;;;27.40;14.32;;;;;;;;;;5032649;28;20146;-74
2022/04/29 12:45:10;;;;;;;24.88;13.20;;;;;;;;;;5033865;28;20123;-74
2022/04/29 12:47:49;;;;;;;;;;;;;;;;;;5028618;28;20713;-74
2022/04/29 12:50:18;;;;;;;27.00;13.02;;;;;;;;;;5028429;28;19917;-74
2022/04/29 12:53:09;;;;;;;28.10;13.40;;;;;;;;;;5031719;28;20033;-74
2022/04/29 12:55:53;;;;;;;28.40;14.88;;;;;;;;;;5025932;28;20038;-74
2022/04/29 12:58:19;;;;;;;;;;;;;;;;;;5033272;28;20033;-74
2022/04/29 13:00:59;;;;;;;31.30;13.80;;;;;;;;;;5029817;28;19917;-74
2022/04/29 13:03:29;;;;;;;27.20;14.38;;;;;;;;;;5037860;28;20022;-74
2022/04/29 13:05:57;;;;;;;27.70;15.18;;;;;;;;;;5029303;28;20049;-74
2022/04/29 13:08:22;;;;;;;33.33;14.50;;;;;;;;;;5036914;28;20392;-74
2022/04/29 13:10:51;;;;;;;29.25;14.70;;;;;;;;;;5030458;28;20120;-74
2022/04/29 13:13:19;;;;;;;29.20;15.57;;;;;;;;;;5043011;28;20029;-73
2022/04/29 13:15:45;;;;;;;26.13;13.25;;;;;;;;;;5026791;28;20075;-74
2022/04/29 13:18:12;;;;;;;29.15;14.65;;;;;;;;;;5034361;28;20445;-74
2022/04/29 13:20:38;;;;;;;31.02;15.57;;;;;;;;;;5035617;28;20034;-74
2022/04/29 13:23:04;;;;;;;32.35;15.90;;;;;;;;;;5033292;28;20028;-74
2022/04/29 13:25:30;;;;;;;27.88;14.48;;;;;;;;;;5032041;28;20510;-74
2022/04/29 13:27:55;;;;;;;26.02;15.05;;;;;;;;;;5033691;28;20037;-74
2022/04/29 13:30:22;;;;;;;32.92;15.57;;;;;;;;;;5032477;28;20535;-74
2022/04/29 13:32:47;;;;;;;32.95;15.88;;;;;;;;;;5029242;28;20021;-74
2022/04/29 13:35:15;;;;;;;27.40;14.98;;;;;;;;;;5031432;28;20051;-74
2022/04/29 13:37:40;;;;;;;29.30;15.25;;;;;;;;;;5030864;28;20045;-73
2022/04/29 13:40:09;;;;;;;31.73;15.38;;;;;;;;;;5043947;28;20040;-74
2022/04/29 13:42:36;;;;;;;28.27;14.02;;;;;;;;;;5040628;28;20505;-74
2022/04/29 13:45:02;;;;;;;25.30;14.70;;;;;;;;;;5035934;28;20053;-74
2022/04/29 13:47:29;;;;;;;24.60;14.50;;;;;;;;;;5032122;28;20029;-74
2022/04/29 13:49:55;;;;;;;27.92;14.43;;;;;;;;;;5037921;28;20029;-74
2022/04/29 13:55:05;;;;;;;26.27;15.07;;;;;;;;;;5044544;28;20102;-74
2022/04/29 13:57:30;;;;;;;28.48;15.85;;;;;;;;;;5037591;28;20450;-74
2022/04/29 13:59:56;;;;;;;25.20;14.52;;;;;;;;;;5041512;28;20083;-74
2022/04/29 14:02:21;;;;;;;26.65;15.45;;;;;;;;;;5026857;28;20069;-74
2022/04/29 14:04:46;;;;;;;30.13;15.77;;;;;;;;;;5041156;28;20047;-74
2022/04/29 14:07:14;;;;;;;28.60;15.45;;;;;;;;;;5042934;28;20064;-74
2022/04/29 14:09:40;;;;;;;33.03;15.93;;;;;;;;;;5031344;28;20438;-74
2022/04/29 14:12:06;;;;;;;28.88;15.02;;;;;;;;;;5043435;28;20033;-74
2022/04/29 14:14:31;;;;;;;28.02;14.88;;;;;;;;;;5039582;28;20387;-73
2022/04/29 14:16:57;;;;;;;32.30;16.23;;;;;;;;;;5038987;28;20083;-74
2022/04/29 14:19:22;;;;;;;32.85;15.75;;;;;;;;;;5029031;28;20053;-74
2022/04/29 14:21:47;;;;;;;32.20;15.65;;;;;;;;;;5027978;28;20047;-74
2022/04/29 14:24:13;;;;;;;28.27;14.18;;;;;;;;;;5033857;28;20029;-73
2022/04/29 14:26:38;;;;;;;28.42;15.35;;;;;;;;;;5034577;28;20014;-74
2022/04/29 14:29:03;;;;;;;33.97;15.48;;;;;;;;;;5039302;28;20044;-74
2022/04/29 14:31:30;;;;;;;30.10;15.00;;;;;;;;;;5042148;28;20041;-74
2022/04/29 14:34:01;;;;;;;26.70;13.80;;;;;;;;;;5037371;28;20065;-74
2022/04/29 14:36:32;;;;;;;28.10;14.50;;;;;;;;;;5034071;28;20060;-74
2022/04/29 14:38:57;;;;;;;34.58;15.15;;;;;;;;;;5038298;28;20032;-74
2022/04/29 14:41:23;;;;;;;29.35;14.60;;;;;;;;;;5047202;28;20037;-74
2022/04/29 14:43:48;;;;;;;32.40;15.05;;;;;;;;;;5037748;28;20047;-74
2022/04/29 14:46:14;;;;;;;28.42;15.23;;;;;;;;;;5030222;28;20057;-74
2022/04/29 14:48:40;;;;;;;28.70;16.02;;;;;;;;;;5029526;28;20034;-74
2022/04/29 14:51:05;;;;;;;28.83;15.43;;;;;;;;;;5038193;28;20086;-74
2022/04/29 14:53:33;;;;;;;29.98;15.57;;;;;;;;;;5037828;28;20106;-74